createdAt,value
2019-05-17T00:00:08.397Z,25.23
2019-05-17T00:02:37.386Z,24.33
2019-05-17T00:05:08.317Z,25.67
2019-05-17T00:07:37.140Z,25.50
2019-05-17T00:10:06.868Z,26.73
2019-05-17T00:12:36.748Z,26.40
2019-05-17T00:15:07.183Z,25.87
2019-05-17T00:17:37.715Z,25.93
2019-05-17T00:20:08.107Z,24.97
2019-05-17T00:22:36.828Z,26.23
2019-05-17T00:25:08.737Z,26.77
2019-05-17T00:27:37.786Z,25.97
2019-05-17T00:30:08.831Z,27.37
2019-05-17T00:32:37.247Z,27.00
2019-05-17T00:35:07.424Z,27.10
2019-05-17T00:37:37.362Z,26.97
2019-05-17T00:40:07.613Z,27.13
2019-05-17T00:42:37.236Z,27.20
2019-05-17T00:45:09.434Z,27.80
2019-05-17T00:47:37.815Z,26.63
2019-05-17T00:50:08.128Z,27.10
2019-05-17T00:52:36.984Z,28.77
2019-05-17T00:55:09.351Z,29.83
2019-05-17T00:57:37.745Z,28.37
2019-05-17T01:00:08.662Z,28.53
2019-05-17T01:02:37.138Z,28.93
2019-05-17T01:05:07.306Z,26.37
2019-05-17T01:07:37.632Z,26.13
2019-05-17T01:10:08.189Z,24.57
2019-05-17T01:12:36.797Z,25.00
2019-05-17T01:15:09.161Z,23.00
2019-05-17T01:17:37.555Z,21.30
2019-05-17T01:20:08.492Z,21.00
2019-05-17T01:22:36.963Z,20.60
2019-05-17T01:25:07.557Z,19.40
2019-05-17T01:27:38.216Z,20.27
2019-05-17T01:30:08.155Z,19.43
2019-05-17T01:32:37.461Z,22.60
2019-05-17T01:35:07.423Z,19.80
2019-05-17T01:37:36.983Z,20.03
2019-05-17T01:40:07.010Z,20.53
2019-05-17T01:42:37.412Z,22.23
2019-05-17T01:45:07.521Z,19.77
2019-05-17T01:47:36.856Z,19.97
2019-05-17T01:50:08.896Z,20.80
2019-05-17T01:52:37.290Z,19.60
2019-05-17T01:55:07.513Z,19.73
2019-05-17T01:57:36.983Z,18.47
2019-05-17T02:00:11.027Z,18.63
2019-05-17T02:02:41.061Z,17.13
2019-05-17T02:05:09.724Z,20.07
2019-05-17T02:07:38.086Z,17.67
2019-05-17T02:10:10.540Z,21.10
2019-05-17T02:12:38.999Z,19.40
2019-05-17T02:15:08.529Z,20.03
2019-05-17T02:17:37.432Z,22.93
2019-05-17T02:20:08.879Z,19.73
2019-05-17T02:22:37.262Z,18.10
2019-05-17T02:25:11.920Z,19.60
2019-05-17T02:27:44.635Z,18.40
2019-05-17T02:30:13.991Z,17.63
2019-05-17T02:32:43.762Z,17.20
2019-05-17T02:35:14.434Z,18.40
2019-05-17T02:37:43.546Z,15.33
2019-05-17T02:40:14.685Z,17.77
2019-05-17T02:42:44.129Z,16.73
2019-05-17T02:45:14.160Z,18.37
2019-05-17T02:47:43.644Z,17.23
2019-05-17T02:50:13.339Z,18.67
2019-05-17T02:52:43.814Z,17.57
2019-05-17T02:55:12.949Z,17.17
2019-05-17T02:57:43.363Z,17.30
2019-05-17T03:00:13.751Z,14.03
2019-05-17T03:02:43.821Z,14.67
2019-05-17T03:05:13.944Z,15.57
2019-05-17T03:07:43.939Z,18.23
2019-05-17T03:10:22.905Z,25.47
2019-05-17T03:12:44.752Z,17.07
2019-05-17T03:15:13.911Z,16.30
2019-05-17T03:17:43.519Z,20.83
2019-05-17T03:20:13.313Z,16.20
2019-05-17T03:22:44.045Z,15.90
2019-05-17T03:25:13.706Z,15.73
2019-05-17T03:27:42.992Z,25.47
2019-05-17T03:30:17.022Z,19.20
2019-05-17T03:32:47.744Z,17.90
2019-05-17T03:35:17.414Z,16.40
2019-05-17T03:37:44.811Z,15.57
2019-05-17T03:40:30.681Z,15.83
2019-05-17T03:42:44.249Z,13.93
2019-05-17T03:45:13.941Z,14.33
2019-05-17T03:47:44.316Z,13.70
2019-05-17T03:50:13.720Z,14.20
2019-05-17T03:52:44.660Z,14.10
2019-05-17T03:55:13.736Z,13.90
2019-05-17T03:57:44.132Z,13.53
2019-05-17T04:00:14.216Z,14.67
2019-05-17T04:02:44.654Z,13.20
2019-05-17T04:05:13.343Z,13.33
2019-05-17T04:07:43.380Z,14.60
2019-05-17T04:10:15.045Z,13.63
2019-05-17T04:12:44.481Z,15.47
2019-05-17T04:15:15.270Z,14.03
2019-05-17T04:17:44.325Z,14.07
2019-05-17T04:20:14.005Z,13.20
2019-05-17T04:22:44.059Z,15.10
2019-05-17T04:25:13.998Z,13.07
2019-05-17T04:27:43.889Z,12.70
2019-05-17T04:30:12.895Z,12.03
2019-05-17T04:32:44.129Z,12.27
2019-05-17T04:35:12.915Z,11.80
2019-05-17T04:37:44.628Z,12.00
2019-05-17T04:40:14.070Z,11.83
2019-05-17T04:42:43.850Z,11.90
2019-05-17T04:45:13.130Z,12.30
2019-05-17T04:47:44.241Z,12.13
2019-05-17T04:50:13.740Z,13.47
2019-05-17T04:52:43.110Z,12.50
2019-05-17T04:55:13.769Z,12.43
2019-05-17T04:57:43.778Z,13.40
2019-05-17T05:00:14.469Z,13.47
2019-05-17T05:02:44.064Z,13.03
2019-05-17T05:05:14.590Z,12.17
2019-05-17T05:07:43.806Z,13.10
2019-05-17T05:10:13.650Z,12.90
2019-05-17T05:12:43.402Z,12.57
2019-05-17T05:15:13.874Z,12.97
2019-05-17T05:17:42.948Z,14.00
2019-05-17T05:20:13.435Z,13.93
2019-05-17T05:22:42.827Z,14.90
2019-05-17T05:25:12.908Z,14.00
2019-05-17T05:27:42.745Z,14.37
2019-05-17T05:30:12.052Z,14.33
2019-05-17T05:32:42.701Z,14.13
2019-05-17T05:35:12.360Z,14.27
2019-05-17T05:37:42.354Z,14.27
2019-05-17T05:40:12.697Z,15.20
2019-05-17T05:42:42.534Z,16.50
2019-05-17T05:45:12.542Z,15.40
2019-05-17T05:47:44.223Z,16.43
2019-05-17T05:50:13.067Z,15.30
2019-05-17T05:52:42.554Z,14.13
2019-05-17T05:55:12.392Z,15.20
2019-05-17T05:57:42.067Z,14.13
2019-05-17T06:00:13.026Z,13.80
2019-05-17T06:02:42.010Z,13.37
2019-05-17T06:05:15.011Z,13.87
2019-05-17T06:07:41.780Z,13.73
2019-05-17T06:10:12.980Z,13.40
2019-05-17T06:12:43.284Z,14.23
2019-05-17T06:15:12.707Z,14.50
2019-05-17T06:17:42.769Z,14.20
2019-05-17T06:20:12.092Z,14.33
2019-05-17T06:22:42.915Z,14.57
2019-05-17T06:25:14.822Z,13.93
2019-05-17T06:27:41.605Z,13.27
2019-05-17T06:30:12.574Z,14.37
2019-05-17T06:32:43.356Z,14.10
2019-05-17T06:35:12.597Z,14.33
2019-05-17T06:37:42.209Z,14.07
2019-05-17T06:40:13.052Z,14.78
2019-05-17T06:42:45.178Z,13.87
2019-05-17T06:45:12.697Z,14.20
2019-05-17T06:47:42.575Z,13.67
2019-05-17T06:50:14.262Z,14.13
2019-05-17T06:52:43.409Z,14.27
2019-05-17T06:55:12.964Z,12.83
2019-05-17T06:57:43.247Z,13.43
2019-05-17T07:00:19.725Z,13.37
2019-05-17T07:02:42.690Z,14.10
2019-05-17T07:05:13.069Z,12.77
2019-05-17T07:07:41.461Z,11.97
2019-05-17T07:10:11.107Z,12.03
2019-05-17T07:12:54.390Z,10.80
2019-05-17T07:15:10.855Z,11.40
2019-05-17T07:17:40.040Z,11.30
2019-05-17T07:20:10.356Z,11.23
2019-05-17T07:22:40.739Z,11.10
2019-05-17T07:25:10.964Z,10.97
2019-05-17T07:27:44.813Z,9.10
2019-05-17T07:30:10.781Z,8.80
2019-05-17T07:32:40.577Z,7.93
2019-05-17T07:35:11.022Z,8.60
2019-05-17T07:37:40.020Z,8.67
2019-05-17T07:40:10.971Z,7.80
2019-05-17T07:42:39.670Z,7.83
2019-05-17T07:45:10.109Z,7.87
2019-05-17T07:47:40.368Z,7.50
2019-05-17T07:50:11.479Z,8.48
2019-05-17T07:52:40.111Z,7.70
2019-05-17T07:55:10.862Z,8.20
2019-05-17T07:57:40.862Z,8.40
2019-05-17T08:00:10.913Z,8.37
2019-05-17T08:02:40.083Z,8.27
2019-05-17T08:05:10.022Z,8.50
2019-05-17T08:07:40.121Z,7.90
2019-05-17T08:10:11.086Z,8.50
2019-05-17T08:12:40.521Z,8.90
2019-05-17T08:15:10.745Z,8.98
2019-05-17T08:17:39.739Z,8.53
2019-05-17T08:20:10.288Z,8.37
2019-05-17T08:22:39.929Z,7.97
2019-05-17T08:25:10.172Z,7.37
2019-05-17T08:27:40.665Z,7.00
2019-05-17T08:30:10.622Z,6.57
2019-05-17T08:32:40.056Z,5.97
2019-05-17T08:35:11.398Z,5.90
2019-05-17T08:37:42.495Z,6.40
2019-05-17T08:40:11.487Z,6.37
2019-05-17T08:42:41.232Z,7.20
2019-05-17T08:45:10.551Z,6.50
2019-05-17T08:47:39.735Z,7.00
2019-05-17T08:50:11.485Z,6.47
2019-05-17T08:52:40.219Z,7.22
2019-05-17T08:55:09.737Z,6.97
2019-05-17T08:57:39.937Z,6.57
2019-05-17T09:00:10.729Z,6.40
2019-05-17T09:02:40.977Z,6.47
2019-05-17T09:05:10.224Z,6.80
2019-05-17T09:07:40.185Z,7.37
2019-05-17T09:10:10.013Z,7.53
2019-05-17T09:12:40.863Z,7.17
2019-05-17T09:15:10.681Z,7.23
2019-05-17T09:17:39.887Z,6.63
2019-05-17T09:20:10.662Z,6.40
2019-05-17T09:22:39.574Z,7.15
2019-05-17T09:25:12.292Z,7.20
2019-05-17T09:27:39.645Z,6.57
2019-05-17T09:30:09.474Z,6.67
2019-05-17T09:32:40.296Z,7.40
2019-05-17T09:35:10.000Z,7.50
2019-05-17T09:37:41.373Z,7.47
2019-05-17T09:40:09.448Z,7.40
2019-05-17T09:42:40.747Z,7.50
2019-05-17T09:45:09.720Z,7.60
2019-05-17T09:47:39.690Z,7.20
2019-05-17T09:50:09.961Z,7.60
2019-05-17T09:52:40.611Z,7.03
2019-05-17T09:55:09.874Z,7.07
2019-05-17T09:57:40.919Z,7.10
2019-05-17T10:00:10.273Z,7.63
2019-05-17T10:02:40.202Z,8.13
2019-05-17T10:05:10.747Z,6.93
2019-05-17T10:07:40.241Z,6.93
2019-05-17T10:10:10.506Z,6.83
2019-05-17T10:12:40.317Z,6.37
2019-05-17T10:15:10.326Z,6.40
2019-05-17T10:17:38.842Z,7.30
2019-05-17T10:20:10.522Z,6.53
2019-05-17T10:22:40.187Z,6.93
2019-05-17T10:25:09.627Z,6.50
2019-05-17T10:27:40.560Z,6.87
2019-05-17T10:30:10.243Z,5.80
2019-05-17T10:32:40.887Z,5.97
2019-05-17T10:35:10.181Z,6.30
2019-05-17T10:37:40.636Z,5.97
2019-05-17T10:40:10.768Z,5.80
2019-05-17T10:42:39.761Z,5.67
2019-05-17T10:45:10.971Z,5.40
2019-05-17T10:47:40.037Z,6.33
2019-05-17T10:50:10.830Z,5.77
2019-05-17T10:52:40.935Z,6.17
2019-05-17T10:55:10.784Z,6.33
2019-05-17T10:57:39.384Z,5.63
2019-05-17T11:00:10.056Z,6.60
2019-05-17T11:02:38.815Z,5.73
2019-05-17T11:05:10.479Z,5.30
2019-05-17T11:07:38.720Z,5.20
2019-05-17T11:10:11.144Z,6.10
2019-05-17T11:12:38.148Z,5.50
2019-05-17T11:15:11.493Z,5.90
2019-05-17T11:17:37.353Z,5.70
2019-05-17T11:20:29.551Z,5.57
2019-05-17T11:22:57.938Z,5.60
2019-05-17T11:25:26.326Z,6.07
2019-05-17T11:27:54.709Z,6.57
2019-05-17T11:30:23.170Z,6.23
2019-05-17T11:32:51.601Z,5.90
2019-05-17T11:35:19.968Z,5.60
2019-05-17T11:37:48.456Z,5.07
2019-05-17T11:40:17.573Z,5.70
2019-05-17T11:42:45.994Z,5.37
2019-05-17T11:45:26.641Z,5.23
2019-05-17T11:47:44.855Z,4.93
2019-05-17T11:50:13.575Z,5.03
2019-05-17T11:52:41.975Z,4.80
2019-05-17T11:55:10.893Z,5.27
2019-05-17T11:57:39.275Z,4.30
2019-05-17T12:00:09.610Z,3.60
2019-05-17T12:02:38.036Z,4.53
2019-05-17T12:05:06.769Z,4.70
2019-05-17T12:07:35.149Z,4.60
2019-05-17T12:10:05.267Z,4.80
2019-05-17T12:12:33.661Z,4.30
2019-05-17T12:15:02.103Z,4.00
2019-05-17T12:17:30.439Z,4.67
2019-05-17T12:19:58.851Z,4.63
2019-05-17T12:22:27.238Z,4.33
2019-05-17T12:24:55.658Z,4.77
2019-05-17T12:27:24.039Z,4.30
2019-05-17T12:29:52.427Z,4.67
2019-05-17T12:32:20.817Z,4.80
2019-05-17T12:34:49.211Z,3.90
2019-05-17T12:37:17.622Z,4.33
2019-05-17T12:39:46.033Z,3.93
2019-05-17T12:42:14.433Z,3.70
2019-05-17T12:44:42.787Z,4.00
2019-05-17T12:47:11.187Z,3.40
2019-05-17T12:49:39.567Z,4.37
2019-05-17T12:52:07.954Z,3.23
2019-05-17T12:54:36.348Z,3.85
2019-05-17T12:57:05.146Z,3.73
2019-05-17T12:59:33.599Z,3.53
2019-05-17T13:02:02.095Z,3.77
2019-05-17T13:04:30.480Z,3.30
2019-05-17T13:06:58.868Z,3.80
2019-05-17T13:09:27.262Z,4.20
2019-05-17T13:11:55.647Z,3.60
2019-05-17T13:14:24.040Z,3.30
2019-05-17T13:16:52.423Z,2.90
2019-05-17T13:19:20.896Z,3.45
2019-05-17T13:21:49.342Z,3.47
2019-05-17T13:24:17.693Z,3.30
2019-05-17T13:26:46.085Z,3.00
2019-05-17T13:29:14.466Z,3.27
2019-05-17T13:31:42.852Z,2.80
2019-05-17T13:34:11.235Z,2.50
2019-05-17T13:36:39.627Z,2.77
2019-05-17T13:39:08.014Z,4.07
2019-05-17T13:41:36.405Z,3.70
2019-05-17T13:44:05.056Z,3.10
2019-05-17T13:46:33.778Z,2.70
2019-05-17T13:49:02.190Z,2.47
2019-05-17T13:51:30.847Z,2.73
2019-05-17T13:53:59.230Z,2.60
2019-05-17T13:56:27.688Z,3.00
2019-05-17T13:58:56.238Z,2.60
2019-05-17T14:01:24.618Z,2.47
2019-05-17T14:03:53.007Z,3.00
2019-05-17T14:06:21.394Z,2.27
2019-05-17T14:08:49.782Z,2.00
2019-05-17T14:11:18.171Z,2.30
2019-05-17T14:13:46.554Z,2.10
2019-05-17T14:16:15.019Z,2.30
2019-05-17T14:18:43.391Z,2.70
2019-05-17T14:21:11.847Z,2.60
2019-05-17T14:23:40.296Z,2.70
2019-05-17T14:26:08.696Z,2.37
2019-05-17T14:28:37.080Z,2.90
2019-05-17T14:31:05.459Z,3.37
2019-05-17T14:33:33.862Z,3.37
2019-05-17T14:36:02.419Z,3.23
2019-05-17T14:38:30.807Z,2.80
2019-05-17T14:41:08.445Z,2.63
2019-05-17T14:43:31.586Z,2.40
2019-05-17T14:45:59.437Z,2.20
2019-05-17T14:48:27.830Z,2.70
2019-05-17T14:50:56.222Z,2.83
2019-05-17T14:53:24.638Z,2.90
2019-05-17T14:55:53.008Z,2.67
2019-05-17T14:58:21.416Z,2.50
2019-05-17T15:00:49.868Z,2.60
2019-05-17T15:03:18.251Z,2.17
2019-05-17T15:05:46.631Z,2.30
2019-05-17T15:08:15.088Z,2.23
2019-05-17T15:10:43.736Z,2.40
2019-05-17T15:13:12.127Z,2.30
2019-05-17T15:15:40.532Z,2.30
2019-05-17T15:18:09.957Z,2.10
2019-05-17T15:20:38.596Z,3.53
2019-05-17T15:23:06.994Z,2.30
2019-05-17T15:25:35.368Z,2.10
2019-05-17T15:28:03.884Z,2.30
2019-05-17T15:30:32.433Z,2.50
2019-05-17T15:33:00.835Z,2.40
2019-05-17T15:35:29.221Z,2.50
2019-05-17T15:37:57.621Z,2.40
2019-05-17T15:40:26.022Z,2.93
2019-05-17T15:42:54.481Z,2.83
2019-05-17T15:45:22.875Z,3.10
2019-05-17T15:47:51.289Z,3.10
2019-05-17T15:50:19.904Z,2.70
2019-05-17T15:52:48.287Z,2.60
2019-05-17T15:55:16.816Z,2.60
2019-05-17T15:57:45.275Z,2.90
2019-05-17T16:00:14.389Z,2.73
2019-05-17T16:02:42.767Z,2.83
2019-05-17T16:05:11.318Z,2.50
2019-05-17T16:07:39.802Z,2.80
2019-05-17T16:10:08.918Z,2.33
2019-05-17T16:12:37.390Z,2.90
2019-05-17T16:15:07.878Z,2.50
2019-05-17T16:17:36.274Z,2.73
2019-05-17T16:20:06.130Z,2.77
2019-05-17T16:22:34.574Z,2.60
2019-05-17T16:25:03.331Z,2.80
2019-05-17T16:27:31.720Z,2.90
2019-05-17T16:30:00.143Z,2.87
2019-05-17T16:32:28.578Z,2.90
2019-05-17T16:34:56.955Z,2.90
2019-05-17T16:37:25.394Z,2.90
2019-05-17T16:39:53.906Z,3.07
2019-05-17T16:42:22.253Z,2.47
2019-05-17T16:44:51.541Z,2.90
2019-05-17T16:47:19.960Z,2.70
2019-05-17T16:49:48.403Z,2.77
2019-05-17T16:52:16.791Z,2.87
2019-05-17T16:54:45.256Z,2.53
2019-05-17T16:57:13.635Z,2.80
2019-05-17T16:59:42.052Z,2.70
2019-05-17T17:02:10.482Z,2.80
2019-05-17T17:04:38.818Z,2.83
2019-05-17T17:07:07.196Z,2.63
2019-05-17T17:09:35.715Z,2.60
2019-05-17T17:12:04.341Z,2.67
2019-05-17T17:14:32.793Z,3.20
2019-05-17T17:17:01.181Z,2.73
2019-05-17T17:19:29.637Z,2.80
2019-05-17T17:21:58.055Z,2.70
2019-05-17T17:24:26.466Z,2.60
2019-05-17T17:26:54.859Z,2.70
2019-05-17T17:29:23.246Z,2.80
2019-05-17T17:31:51.688Z,3.00
2019-05-17T17:34:20.071Z,2.90
2019-05-17T17:36:48.459Z,3.03
2019-05-17T17:39:16.929Z,3.20
2019-05-17T17:41:45.422Z,3.00
2019-05-17T17:44:13.789Z,3.23
2019-05-17T17:46:42.186Z,2.73
2019-05-17T17:49:10.580Z,3.30
2019-05-17T17:51:38.965Z,3.17
2019-05-17T17:54:07.351Z,3.30
2019-05-17T17:56:35.734Z,3.50
2019-05-17T17:59:04.219Z,3.30
2019-05-17T18:01:32.602Z,3.10
2019-05-17T18:04:00.988Z,3.17
2019-05-17T18:06:29.441Z,3.00
2019-05-17T18:08:57.833Z,3.57
2019-05-17T18:11:26.210Z,3.33
2019-05-17T18:13:54.597Z,3.50
2019-05-17T18:16:22.978Z,3.40
2019-05-17T18:18:51.383Z,3.43
2019-05-17T18:21:19.771Z,3.43
2019-05-17T18:23:48.160Z,3.30
2019-05-17T18:26:16.620Z,3.57
2019-05-17T18:28:45.004Z,3.47
2019-05-17T18:31:13.467Z,3.40
2019-05-17T18:33:42.002Z,3.10
2019-05-17T18:36:10.439Z,3.63
2019-05-17T18:38:38.909Z,3.50
2019-05-17T18:41:08.148Z,3.60
2019-05-17T18:43:36.542Z,3.60
2019-05-17T18:46:04.998Z,3.53
2019-05-17T18:48:33.447Z,4.00
2019-05-17T18:51:01.834Z,4.20
2019-05-17T18:53:30.220Z,4.13
2019-05-17T18:55:58.630Z,4.37
2019-05-17T18:58:27.016Z,4.70
2019-05-17T19:00:55.474Z,4.53
2019-05-17T19:03:23.909Z,4.20
2019-05-17T19:05:52.356Z,4.37
2019-05-17T19:08:20.753Z,4.43
2019-05-17T19:10:49.495Z,4.90
2019-05-17T19:13:17.870Z,4.53
2019-05-17T19:15:46.258Z,4.43
2019-05-17T19:18:14.799Z,4.50
2019-05-17T19:20:43.170Z,4.70
2019-05-17T19:23:11.551Z,4.10
2019-05-17T19:25:39.973Z,4.33
2019-05-17T19:28:08.421Z,4.60
2019-05-17T19:30:36.818Z,4.90
2019-05-17T19:33:05.198Z,4.57
2019-05-17T19:35:33.614Z,4.50
2019-05-17T19:38:01.999Z,4.60
2019-05-17T19:40:30.449Z,4.90
2019-05-17T19:42:58.835Z,4.70
2019-05-17T19:45:27.222Z,4.80
2019-05-17T19:47:58.589Z,4.30
2019-05-17T19:50:27.002Z,4.50
2019-05-17T19:52:55.369Z,4.20
2019-05-17T19:55:23.835Z,4.40
2019-05-17T19:57:52.296Z,4.60
2019-05-17T20:00:21.166Z,4.50
2019-05-17T20:02:49.544Z,4.57
2019-05-17T20:05:18.000Z,4.70
2019-05-17T20:07:46.435Z,5.40
2019-05-17T20:10:16.715Z,4.80
2019-05-17T20:12:45.184Z,5.20
2019-05-17T20:15:17.613Z,4.80
2019-05-17T20:17:44.118Z,4.90
2019-05-17T20:20:15.611Z,5.27
2019-05-17T20:22:44.041Z,4.93
2019-05-17T20:25:13.137Z,5.20
2019-05-17T20:27:41.526Z,5.50
2019-05-17T20:30:10.844Z,5.13
2019-05-17T20:32:39.349Z,5.30
2019-05-17T20:35:08.589Z,5.50
2019-05-17T20:37:36.986Z,5.37
2019-05-17T20:40:10.266Z,4.97
2019-05-17T20:42:38.656Z,5.13
2019-05-17T20:45:09.684Z,5.37
2019-05-17T20:47:38.072Z,4.93
2019-05-17T20:50:09.515Z,5.07
2019-05-17T20:52:37.907Z,5.23
2019-05-17T20:55:07.028Z,4.97
2019-05-17T20:57:35.409Z,5.03
2019-05-17T21:00:07.010Z,5.10
2019-05-17T21:02:35.403Z,5.70
2019-05-17T21:05:05.877Z,5.50
2019-05-17T21:07:34.267Z,5.00
2019-05-17T21:10:02.819Z,5.87
2019-05-17T21:12:31.227Z,5.43
2019-05-17T21:14:59.614Z,5.27
2019-05-17T21:17:28.006Z,5.30
2019-05-17T21:19:56.381Z,5.60
2019-05-17T21:22:24.854Z,5.70
2019-05-17T21:24:53.290Z,6.13
2019-05-17T21:27:21.712Z,5.80
2019-05-17T21:29:50.093Z,6.13
2019-05-17T21:32:18.476Z,6.00
2019-05-17T21:34:46.855Z,6.10
2019-05-17T21:37:15.512Z,6.10
2019-05-17T21:39:43.896Z,6.00
2019-05-17T21:42:12.346Z,5.87
2019-05-17T21:44:40.782Z,6.40
2019-05-17T21:47:09.143Z,6.33
2019-05-17T21:49:37.585Z,5.97
2019-05-17T21:52:06.744Z,6.10
2019-05-17T21:54:35.133Z,5.73
2019-05-17T21:57:03.522Z,7.13
2019-05-17T21:59:31.902Z,5.93
2019-05-17T22:02:01.170Z,6.20
2019-05-17T22:04:29.545Z,7.17
2019-05-17T22:06:57.939Z,7.00
2019-05-17T22:09:26.400Z,6.87
2019-05-17T22:11:56.428Z,7.83
2019-05-17T22:14:24.813Z,6.53
2019-05-17T22:16:53.200Z,7.40
2019-05-17T22:19:21.595Z,7.53
2019-05-17T22:21:49.978Z,7.60
2019-05-17T22:24:18.373Z,9.10
2019-05-17T22:26:46.836Z,8.60
2019-05-17T22:29:15.228Z,9.33
2019-05-17T22:31:43.622Z,9.57
2019-05-17T22:34:12.016Z,9.00
2019-05-17T22:36:40.408Z,9.60
2019-05-17T22:39:08.907Z,10.00
2019-05-17T22:41:37.369Z,9.40
2019-05-17T22:44:05.801Z,9.50
2019-05-17T22:46:36.420Z,9.90
2019-05-17T22:49:04.347Z,10.00
2019-05-17T22:51:32.787Z,9.60
2019-05-17T22:54:01.245Z,9.07
2019-05-17T22:56:29.653Z,9.23
2019-05-17T22:58:58.130Z,8.77
2019-05-17T23:01:26.612Z,9.03
2019-05-17T23:03:55.075Z,8.50
2019-05-17T23:06:23.437Z,8.67
2019-05-17T23:08:51.894Z,8.83
2019-05-17T23:11:20.335Z,8.83
2019-05-17T23:13:48.717Z,7.97
2019-05-17T23:16:17.213Z,8.00
2019-05-17T23:19:03.787Z,7.73
2019-05-17T23:21:32.173Z,7.97
2019-05-17T23:24:00.605Z,7.90
2019-05-17T23:26:29.034Z,8.00
2019-05-17T23:28:57.431Z,8.20
2019-05-17T23:31:25.820Z,7.43
2019-05-17T23:33:54.290Z,7.40
2019-05-17T23:36:22.860Z,7.90
2019-05-17T23:38:51.255Z,7.73
2019-05-17T23:41:19.673Z,7.17
2019-05-17T23:43:48.161Z,7.43
2019-05-17T23:46:16.582Z,7.63
2019-05-17T23:48:45.059Z,7.87
2019-05-17T23:51:13.469Z,7.67
2019-05-17T23:53:41.997Z,7.43
2019-05-17T23:56:10.384Z,7.77
2019-05-17T23:58:38.789Z,7.60
